createdAt,value
2022-08-24T00:00:22.048Z,100883.03
2022-08-24T00:02:50.306Z,100879.00
2022-08-24T00:05:19.960Z,100885.38
2022-08-24T00:07:49.154Z,100889.72
2022-08-24T00:10:17.198Z,100883.53
2022-08-24T00:12:45.165Z,100888.50
2022-08-24T00:15:13.192Z,100884.16
2022-08-24T00:17:40.718Z,100888.53
2022-08-24T00:20:09.299Z,100896.19
2022-08-24T00:22:36.739Z,100891.53
2022-08-24T00:25:04.352Z,100889.53
2022-08-24T00:27:32.319Z,100889.53
2022-08-24T00:29:59.953Z,100886.03
2022-08-24T00:32:29.598Z,100884.38
2022-08-24T00:34:58.867Z,100890.72
2022-08-24T00:37:28.811Z,100890.56
2022-08-24T00:39:56.508Z,100886.22
2022-08-24T00:42:24.507Z,100897.72
2022-08-24T00:44:52.245Z,100906.50
2022-08-24T00:47:21.313Z,100900.84
2022-08-24T00:49:54.665Z,100900.50
2022-08-24T00:52:25.426Z,100893.84
2022-08-24T00:54:55.198Z,100901.53
2022-08-24T00:57:23.626Z,100907.84
2022-08-24T00:59:52.759Z,100904.19
2022-08-24T01:02:25.245Z,100900.34
2022-08-24T01:04:54.845Z,100903.84
2022-08-24T01:07:23.291Z,100899.38
2022-08-24T01:09:54.397Z,100905.81
2022-08-24T01:12:21.985Z,100918.66
2022-08-24T01:14:49.491Z,100910.47
2022-08-24T01:17:39.023Z,100915.16
2022-08-24T01:20:08.522Z,100920.78
2022-08-24T01:22:54.650Z,100924.16
2022-08-24T01:25:22.728Z,100921.31
2022-08-24T01:27:50.173Z,100922.47
2022-08-24T01:30:17.972Z,100929.22
2022-08-24T01:32:58.336Z,100929.72
2022-08-24T01:35:26.077Z,100927.69
2022-08-24T01:37:54.630Z,100928.06
2022-08-24T01:40:22.612Z,100939.94
2022-08-24T01:42:50.902Z,100940.47
2022-08-24T01:45:19.061Z,100947.84
2022-08-24T01:47:48.030Z,100952.97
2022-08-24T01:50:15.428Z,100948.31
2022-08-24T01:53:03.849Z,100954.84
2022-08-24T01:55:30.756Z,100952.09
2022-08-24T01:57:59.060Z,100950.81
2022-08-24T02:00:29.236Z,100951.81
2022-08-24T02:02:57.306Z,100953.16
2022-08-24T02:05:24.908Z,100946.41
2022-08-24T02:07:52.446Z,100944.09
2022-08-24T02:10:21.435Z,100953.91
2022-08-24T02:12:58.059Z,100954.03
2022-08-24T02:15:38.887Z,100962.34
2022-08-24T02:18:15.159Z,100960.91
2022-08-24T02:20:43.577Z,100967.03
2022-08-24T02:23:10.954Z,100969.44
2022-08-24T02:25:38.540Z,100975.09
2022-08-24T02:28:05.960Z,100972.66
2022-08-24T02:30:34.142Z,100976.31
2022-08-24T02:33:01.685Z,100978.38
2022-08-24T02:35:29.935Z,100979.00
2022-08-24T02:37:58.016Z,100982.53
2022-08-24T02:40:27.405Z,100976.88
2022-08-24T02:42:55.907Z,100983.50
2022-08-24T02:45:24.037Z,100985.16
2022-08-24T02:47:51.457Z,100992.09
2022-08-24T02:50:20.327Z,100989.38
2022-08-24T02:52:47.805Z,100982.19
2022-08-24T02:55:16.393Z,100984.69
2022-08-24T02:57:50.826Z,100988.31
2022-08-24T03:00:19.600Z,100989.72
2022-08-24T03:02:51.946Z,100999.09
2022-08-24T03:05:20.067Z,100994.00
2022-08-24T03:07:47.535Z,100990.63
2022-08-24T03:10:17.545Z,100999.38
2022-08-24T03:12:45.532Z,100991.63
2022-08-24T03:15:13.412Z,101004.47
2022-08-24T03:17:42.066Z,101001.63
2022-08-24T03:20:12.072Z,100996.97
2022-08-24T03:22:40.501Z,100999.25
2022-08-24T03:25:08.792Z,100999.00
2022-08-24T03:27:36.858Z,101005.16
2022-08-24T03:30:05.024Z,101012.28
2022-08-24T03:32:33.147Z,101010.72
2022-08-24T03:35:02.450Z,101010.16
2022-08-24T03:37:30.155Z,101011.94
2022-08-24T03:39:57.728Z,101010.84
2022-08-24T03:42:25.697Z,101014.47
2022-08-24T03:44:53.384Z,101014.41
2022-08-24T03:47:22.877Z,101028.59
2022-08-24T03:49:50.648Z,101012.31
2022-08-24T03:52:18.035Z,101023.72
2022-08-24T03:54:46.057Z,101013.06
2022-08-24T03:57:14.587Z,101026.44
2022-08-24T03:59:46.421Z,101030.25
2022-08-24T04:02:15.087Z,101033.50
2022-08-24T04:04:43.180Z,101031.59
2022-08-24T04:07:12.152Z,101032.34
2022-08-24T04:09:39.726Z,101038.75
2022-08-24T04:12:08.608Z,101027.47
2022-08-24T04:14:36.699Z,101026.56
2022-08-24T04:17:14.582Z,101030.81
2022-08-24T04:19:57.955Z,101029.41
2022-08-24T04:22:31.999Z,101031.06
2022-08-24T04:24:59.439Z,101038.66
2022-08-24T04:27:28.782Z,101046.41
2022-08-24T04:29:56.837Z,101037.16
2022-08-24T04:32:26.168Z,101045.88
2022-08-24T04:34:56.402Z,101051.66
2022-08-24T04:37:28.936Z,101046.53
2022-08-24T04:39:57.798Z,101050.59
2022-08-24T04:42:29.029Z,101047.63
2022-08-24T04:44:57.141Z,101035.91
2022-08-24T04:47:24.910Z,101044.47
2022-08-24T04:49:52.452Z,101044.97
2022-08-24T04:52:20.129Z,101043.66
2022-08-24T04:54:47.719Z,101045.69
2022-08-24T04:57:20.261Z,101050.00
2022-08-24T04:59:49.313Z,101050.19
2022-08-24T05:02:17.511Z,101045.41
2022-08-24T05:04:48.603Z,101048.09
2022-08-24T05:07:16.251Z,101045.28
2022-08-24T05:09:44.886Z,101049.44
2022-08-24T05:12:12.564Z,101042.66
2022-08-24T05:14:48.172Z,101051.91
2022-08-24T05:17:15.965Z,101047.75
2022-08-24T05:19:43.675Z,101046.31
2022-08-24T05:22:11.919Z,101051.13
2022-08-24T05:24:44.648Z,101052.50
2022-08-24T05:27:14.318Z,101044.63
2022-08-24T05:29:43.231Z,101034.81
2022-08-24T05:32:11.420Z,101047.81
2022-08-24T05:34:39.085Z,101040.81
2022-08-24T05:37:07.007Z,101051.81
2022-08-24T05:40:10.533Z,101041.66
2022-08-24T05:42:40.574Z,101044.47
2022-08-24T05:45:08.799Z,101042.31
2022-08-24T05:47:36.478Z,101039.16
2022-08-24T05:50:11.916Z,101044.63
2022-08-24T05:52:39.479Z,101039.13
2022-08-24T05:55:07.465Z,101047.09
2022-08-24T05:57:35.378Z,101049.47
2022-08-24T06:00:33.630Z,101050.44
2022-08-24T06:03:01.220Z,101041.31
2022-08-24T06:05:29.076Z,101043.78
2022-08-24T06:07:57.654Z,101041.63
2022-08-24T06:10:40.993Z,101044.97
2022-08-24T06:13:09.709Z,101046.28
2022-08-24T06:15:37.842Z,101046.06
2022-08-24T06:18:05.707Z,101044.34
2022-08-24T06:20:33.657Z,101048.78
2022-08-24T06:23:01.250Z,101041.03
2022-08-24T06:25:57.535Z,101044.25
2022-08-24T06:28:25.374Z,101053.41
2022-08-24T06:31:01.479Z,101037.53
2022-08-24T06:33:30.186Z,101032.34
2022-08-24T06:35:59.099Z,101034.19
2022-08-24T06:38:26.609Z,101039.25
2022-08-24T06:40:54.546Z,101028.50
2022-08-24T06:43:22.916Z,101027.53
2022-08-24T06:45:55.217Z,101026.75
2022-08-24T06:48:30.549Z,101021.09
2022-08-24T06:50:58.316Z,101005.88
2022-08-24T06:53:25.872Z,101017.31
2022-08-24T06:55:58.150Z,101008.34
2022-08-24T06:58:26.502Z,101013.44
2022-08-24T07:00:57.136Z,101008.47
2022-08-24T07:03:25.405Z,101000.56
2022-08-24T07:06:04.768Z,101001.97
2022-08-24T07:08:42.439Z,101012.78
2022-08-24T07:11:11.693Z,101006.50
2022-08-24T07:13:39.795Z,101006.84
2022-08-24T07:16:07.474Z,100998.38
2022-08-24T07:18:37.358Z,101005.72
2022-08-24T07:21:05.510Z,101004.28
2022-08-24T07:23:46.595Z,100995.38
2022-08-24T07:26:22.105Z,101002.59
2022-08-24T07:28:53.131Z,100993.97
2022-08-24T07:31:22.493Z,100987.31
2022-08-24T07:34:07.380Z,100992.28
2022-08-24T07:36:35.878Z,100989.84
2022-08-24T07:39:04.865Z,100986.13
2022-08-24T07:41:51.543Z,100972.66
2022-08-24T07:44:23.013Z,100977.66
2022-08-24T07:46:52.662Z,100970.91
2022-08-24T07:49:33.019Z,100980.09
2022-08-24T07:52:04.545Z,100971.28
2022-08-24T07:54:32.158Z,100965.88
2022-08-24T07:56:59.952Z,100972.13
2022-08-24T07:59:27.714Z,100971.31
2022-08-24T08:01:56.249Z,100975.78
2022-08-24T08:04:25.218Z,100973.09
2022-08-24T08:06:53.750Z,100974.63
2022-08-24T08:09:21.701Z,100978.34
2022-08-24T08:11:49.815Z,100976.22
2022-08-24T08:14:17.400Z,100967.19
2022-08-24T08:16:45.938Z,100962.69
2022-08-24T08:19:14.468Z,100975.44
2022-08-24T08:22:06.527Z,100982.00
2022-08-24T08:24:39.890Z,100992.38
2022-08-24T08:27:08.183Z,100974.28
2022-08-24T08:29:40.421Z,100983.16
2022-08-24T08:32:08.653Z,100970.13
2022-08-24T08:34:36.918Z,100964.25
2022-08-24T08:37:04.627Z,100975.06
2022-08-24T08:39:32.511Z,100983.03
2022-08-24T08:42:06.336Z,100976.25
2022-08-24T08:44:38.779Z,100973.44
2022-08-24T08:47:12.749Z,100973.56
2022-08-24T08:49:59.214Z,100970.56
2022-08-24T08:52:45.775Z,100968.75
2022-08-24T08:55:16.401Z,100975.63
2022-08-24T08:58:02.954Z,100981.53
2022-08-24T09:00:45.246Z,100973.56
2022-08-24T09:03:32.945Z,100970.31
2022-08-24T09:06:33.192Z,100971.81
2022-08-24T09:09:01.172Z,100963.31
2022-08-24T09:11:32.462Z,100965.88
2022-08-24T09:14:18.970Z,100957.97
2022-08-24T09:17:12.291Z,100961.59
2022-08-24T09:19:47.523Z,100950.50
2022-08-24T09:22:16.601Z,100950.56
2022-08-24T09:24:54.050Z,100961.69
2022-08-24T09:28:01.598Z,100949.63
2022-08-24T09:30:49.841Z,100941.97
2022-08-24T09:33:20.674Z,100925.16
2022-08-24T09:36:01.947Z,100942.44
2022-08-24T09:38:35.153Z,100946.59
2022-08-24T09:41:05.726Z,100948.78
2022-08-24T09:43:49.148Z,100940.31
2022-08-24T09:46:35.644Z,100943.16
2022-08-24T09:49:14.011Z,100945.72
2022-08-24T09:51:42.254Z,100940.84
2022-08-24T09:54:12.768Z,100949.53
2022-08-24T09:56:43.440Z,100939.56
2022-08-24T09:59:10.945Z,100929.84
2022-08-24T10:01:57.011Z,100928.22
2022-08-24T10:04:27.695Z,100929.03
2022-08-24T10:07:02.313Z,100931.56
2022-08-24T10:09:32.968Z,100934.03
2022-08-24T10:12:04.437Z,100948.72
2022-08-24T10:14:50.685Z,100930.22
2022-08-24T10:17:21.200Z,100936.41
2022-08-24T10:19:49.147Z,100946.63
2022-08-24T10:22:29.229Z,100932.28
2022-08-24T10:25:09.203Z,100947.69
2022-08-24T10:27:46.122Z,100954.91
2022-08-24T10:30:27.782Z,100961.56
2022-08-24T10:33:11.453Z,100949.59
2022-08-24T10:35:59.165Z,100936.84
2022-08-24T10:39:04.261Z,100947.50
2022-08-24T10:41:47.086Z,100944.94
2022-08-24T10:44:24.173Z,100939.69
2022-08-24T10:47:01.835Z,100942.97
2022-08-24T10:49:35.382Z,100940.41
2022-08-24T10:52:14.841Z,100944.38
2022-08-24T10:54:42.497Z,100935.34
2022-08-24T10:57:18.212Z,100928.50
2022-08-24T11:00:06.198Z,100929.53
2022-08-24T11:02:35.801Z,100943.97
2022-08-24T11:05:08.366Z,100939.13
2022-08-24T11:07:36.498Z,100924.25
2022-08-24T11:10:06.733Z,100928.34
2022-08-24T11:12:38.854Z,100944.94
2022-08-24T11:15:18.521Z,100929.03
2022-08-24T11:17:56.819Z,100937.63
2022-08-24T11:20:29.011Z,100921.94
2022-08-24T11:23:02.420Z,100913.00
2022-08-24T11:25:30.510Z,100911.41
2022-08-24T11:27:59.156Z,100905.81
2022-08-24T11:30:27.958Z,100919.41
2022-08-24T11:32:55.574Z,100913.56
2022-08-24T11:35:32.331Z,100921.53
2022-08-24T11:38:14.137Z,100916.97
2022-08-24T11:40:42.883Z,100934.09
2022-08-24T11:43:16.626Z,100912.50
2022-08-24T11:46:02.474Z,100920.28
2022-08-24T11:48:31.987Z,100910.72
2022-08-24T11:51:08.555Z,100910.09
2022-08-24T11:53:56.532Z,100915.09
2022-08-24T11:56:25.535Z,100913.78
2022-08-24T11:59:11.643Z,100923.88
2022-08-24T12:02:00.109Z,100919.50
2022-08-24T12:04:46.634Z,100899.84
2022-08-24T12:07:20.307Z,100905.66
2022-08-24T12:09:47.708Z,100898.56
2022-08-24T12:12:21.274Z,100905.75
2022-08-24T12:15:02.545Z,100899.84
2022-08-24T12:18:05.921Z,100902.22
2022-08-24T12:20:41.657Z,100897.56
2022-08-24T12:23:15.217Z,100888.50
2022-08-24T12:26:01.344Z,100908.00
2022-08-24T12:28:37.299Z,100895.66
2022-08-24T12:31:10.167Z,100901.38
2022-08-24T12:33:37.921Z,100897.88
2022-08-24T12:36:08.254Z,100888.50
2022-08-24T12:38:39.715Z,100897.81
2022-08-24T12:41:26.103Z,100882.41
2022-08-24T12:44:13.006Z,100902.56
2022-08-24T12:46:43.170Z,100889.09
2022-08-24T12:49:18.547Z,100894.13
2022-08-24T12:51:49.231Z,100887.25
2022-08-24T12:54:35.128Z,100887.47
2022-08-24T12:57:02.925Z,100880.16
2022-08-24T12:59:30.455Z,100885.94
2022-08-24T13:02:01.671Z,100885.50
2022-08-24T13:04:53.123Z,100886.47
2022-08-24T13:07:24.045Z,100885.50
2022-08-24T13:09:57.722Z,100887.63
2022-08-24T13:12:31.245Z,100880.97
2022-08-24T13:15:17.250Z,100885.41
2022-08-24T13:17:44.745Z,100880.91
2022-08-24T13:20:17.426Z,100877.47
2022-08-24T13:22:48.802Z,100875.19
2022-08-24T13:25:25.175Z,100876.75
2022-08-24T13:28:15.446Z,100864.09
2022-08-24T13:31:02.859Z,100884.66
2022-08-24T13:33:36.451Z,100882.91
2022-08-24T13:36:07.308Z,100888.97
2022-08-24T13:38:34.921Z,100882.50
2022-08-24T13:41:09.144Z,100888.41
2022-08-24T13:43:45.999Z,100889.00
2022-08-24T13:46:16.188Z,100880.84
2022-08-24T13:48:52.953Z,100889.47
2022-08-24T13:51:32.951Z,100884.88
2022-08-24T13:54:04.074Z,100892.38
2022-08-24T13:56:38.013Z,100888.81
2022-08-24T13:59:22.610Z,100878.91
2022-08-24T14:02:02.742Z,100877.97
2022-08-24T14:04:37.275Z,100878.16
2022-08-24T14:07:15.661Z,100875.56
2022-08-24T14:10:06.850Z,100873.53
2022-08-24T14:12:41.477Z,100884.38
2022-08-24T14:15:17.749Z,100872.19
2022-08-24T14:18:07.831Z,100865.03
2022-08-24T14:20:54.143Z,100878.72
2022-08-24T14:23:25.383Z,100884.44
2022-08-24T14:26:14.048Z,100879.13
2022-08-24T14:28:42.410Z,100876.78
2022-08-24T14:31:20.694Z,100871.34
2022-08-24T14:33:54.346Z,100879.59
2022-08-24T14:36:24.671Z,100865.78
2022-08-24T14:39:04.211Z,100866.03
2022-08-24T14:41:32.359Z,100879.47
2022-08-24T14:44:20.684Z,100866.75
2022-08-24T14:46:59.027Z,100867.28
2022-08-24T14:49:34.668Z,100876.38
2022-08-24T14:52:22.175Z,100887.94
2022-08-24T14:54:53.517Z,100879.84
2022-08-24T14:57:27.134Z,100871.31
2022-08-24T14:59:58.791Z,100885.16
2022-08-24T15:02:29.756Z,100873.31
2022-08-24T15:05:06.752Z,100868.31
2022-08-24T15:07:35.017Z,100875.13
2022-08-24T15:10:02.926Z,100881.22
2022-08-24T15:12:49.879Z,100869.97
2022-08-24T15:15:40.743Z,100879.63
2022-08-24T15:18:19.597Z,100873.34
2022-08-24T15:21:06.654Z,100871.63
2022-08-24T15:23:37.254Z,100883.78
2022-08-24T15:26:19.159Z,100862.38
2022-08-24T15:28:56.488Z,100878.41
2022-08-24T15:31:25.977Z,100876.28
2022-08-24T15:33:59.978Z,100875.72
2022-08-24T15:36:28.470Z,100870.88
2022-08-24T15:38:56.219Z,100872.69
2022-08-24T15:41:24.879Z,100878.09
2022-08-24T15:43:54.273Z,100868.09
2022-08-24T15:46:23.373Z,100876.06
2022-08-24T15:48:51.187Z,100869.06
2022-08-24T15:51:31.418Z,100870.88
2022-08-24T15:53:58.943Z,100876.16
2022-08-24T15:56:26.377Z,100873.41
2022-08-24T15:58:53.934Z,100873.47
2022-08-24T16:01:41.030Z,100872.28
2022-08-24T16:04:15.836Z,100869.59
2022-08-24T16:06:45.389Z,100877.19
2022-08-24T16:09:19.727Z,100876.41
2022-08-24T16:11:49.023Z,100881.44
2022-08-24T16:14:55.154Z,100885.38
2022-08-24T16:17:39.108Z,100882.19
2022-08-24T16:20:12.300Z,100885.19
2022-08-24T16:22:40.997Z,100889.59
2022-08-24T16:25:10.191Z,100892.00
2022-08-24T16:27:58.011Z,100889.31
2022-08-24T16:30:36.174Z,100887.94
2022-08-24T16:33:06.022Z,100898.91
2022-08-24T16:35:34.744Z,100898.78
2022-08-24T16:38:04.022Z,100889.91
2022-08-24T16:40:34.812Z,100901.84
2022-08-24T16:43:03.395Z,100895.63
2022-08-24T16:45:35.735Z,100900.22
2022-08-24T16:48:04.135Z,100901.06
2022-08-24T16:50:32.055Z,100896.47
2022-08-24T16:53:00.355Z,100905.34
2022-08-24T16:55:28.665Z,100902.28
2022-08-24T16:57:56.323Z,100910.13
2022-08-24T17:00:24.664Z,100905.44
2022-08-24T17:02:52.119Z,100910.69
2022-08-24T17:05:19.832Z,100911.88
2022-08-24T17:07:47.403Z,100917.31
2022-08-24T17:10:16.018Z,100910.59
2022-08-24T17:12:43.790Z,100921.75
2022-08-24T17:15:12.932Z,100921.84
2022-08-24T17:17:40.588Z,100928.47
2022-08-24T17:20:09.905Z,100933.16
2022-08-24T17:22:38.371Z,100933.66
2022-08-24T17:25:06.103Z,100932.91
2022-08-24T17:27:34.333Z,100937.53
2022-08-24T17:30:02.185Z,100931.81
2022-08-24T17:32:29.751Z,100932.22
2022-08-24T17:34:58.217Z,100940.09
2022-08-24T17:37:25.832Z,100928.91
2022-08-24T17:39:55.087Z,100933.16
2022-08-24T17:42:49.042Z,100940.06
2022-08-24T17:45:10.240Z,100943.41
2022-08-24T17:47:38.391Z,100933.19
2022-08-24T17:50:08.394Z,100938.38
2022-08-24T17:52:37.169Z,100930.94
2022-08-24T17:55:05.343Z,100934.66
2022-08-24T17:57:33.049Z,100939.94
2022-08-24T18:00:00.690Z,100933.91
2022-08-24T18:02:28.323Z,100934.66
2022-08-24T18:04:57.671Z,100933.94
2022-08-24T18:07:49.438Z,100939.53
2022-08-24T18:10:14.200Z,100937.34
2022-08-24T18:12:41.811Z,100937.41
2022-08-24T18:15:09.887Z,100935.13
2022-08-24T18:17:38.211Z,100934.31
2022-08-24T18:20:07.123Z,100936.22
2022-08-24T18:22:34.894Z,100929.56
2022-08-24T18:25:02.512Z,100932.56
2022-08-24T18:27:30.376Z,100940.81
2022-08-24T18:30:02.594Z,100933.56
2022-08-24T18:32:31.207Z,100930.13
2022-08-24T18:34:59.789Z,100926.03
2022-08-24T18:37:27.298Z,100928.13
2022-08-24T18:39:54.725Z,100930.41
2022-08-24T18:42:22.207Z,100925.94
2022-08-24T18:44:49.770Z,100923.59
2022-08-24T18:47:17.553Z,100927.56
2022-08-24T18:49:44.995Z,100919.94
2022-08-24T18:52:13.407Z,100915.22
2022-08-24T18:54:42.063Z,100920.22
2022-08-24T18:57:09.534Z,100921.03
2022-08-24T18:59:39.341Z,100914.13
2022-08-24T19:02:29.372Z,100914.44
2022-08-24T19:05:17.638Z,100916.34
2022-08-24T19:07:47.030Z,100918.00
2022-08-24T19:10:15.872Z,100911.16
2022-08-24T19:12:47.419Z,100916.53
2022-08-24T19:15:32.080Z,100915.59
2022-08-24T19:18:05.290Z,100920.00
2022-08-24T19:20:34.124Z,100913.63
2022-08-24T19:23:06.053Z,100910.28
2022-08-24T19:25:35.373Z,100914.69
2022-08-24T19:28:03.566Z,100911.66
2022-08-24T19:30:31.676Z,100918.72
2022-08-24T19:32:59.454Z,100916.13
2022-08-24T19:35:27.049Z,100916.06
2022-08-24T19:37:54.662Z,100917.53
2022-08-24T19:40:22.182Z,100919.53
2022-08-24T19:42:51.084Z,100915.63
2022-08-24T19:45:37.865Z,100919.06
2022-08-24T19:48:06.200Z,100918.16
2022-08-24T19:50:36.067Z,100913.78
2022-08-24T19:53:04.494Z,100912.72
2022-08-24T19:55:32.671Z,100922.41
2022-08-24T19:58:06.117Z,100912.03
2022-08-24T20:00:43.032Z,100909.41
2022-08-24T20:03:15.680Z,100914.84
2022-08-24T20:05:43.230Z,100908.28
2022-08-24T20:08:11.099Z,100911.28
2022-08-24T20:10:39.350Z,100912.72
2022-08-24T20:13:07.096Z,100910.34
2022-08-24T20:15:36.897Z,100919.03
2022-08-24T20:18:04.531Z,100914.09
2022-08-24T20:20:32.224Z,100920.66
2022-08-24T20:23:03.362Z,100914.28
2022-08-24T20:25:30.927Z,100913.94
2022-08-24T20:28:25.514Z,100911.75
2022-08-24T20:30:46.773Z,100910.00
2022-08-24T20:33:15.466Z,100910.50
2022-08-24T20:35:43.422Z,100906.25
2022-08-24T20:38:13.525Z,100911.06
2022-08-24T20:40:41.227Z,100904.66
2022-08-24T20:43:08.634Z,100910.28
2022-08-24T20:45:41.481Z,100899.38
2022-08-24T20:48:12.156Z,100908.41
2022-08-24T20:50:43.591Z,100895.16
2022-08-24T20:53:11.659Z,100899.06
2022-08-24T20:55:39.766Z,100897.19
2022-08-24T20:58:07.243Z,100893.03
2022-08-24T21:00:34.754Z,100894.09
2022-08-24T21:03:04.116Z,100890.53
2022-08-24T21:05:31.766Z,100891.50
2022-08-24T21:07:59.361Z,100886.19
2022-08-24T21:10:27.762Z,100896.72
2022-08-24T21:12:55.698Z,100896.34
2022-08-24T21:15:23.528Z,100888.28
2022-08-24T21:17:51.129Z,100891.31
2022-08-24T21:20:18.691Z,100885.00
2022-08-24T21:22:46.361Z,100885.69
2022-08-24T21:25:14.697Z,100891.38
2022-08-24T21:27:44.275Z,100890.84
2022-08-24T21:30:13.065Z,100879.31
2022-08-24T21:32:59.388Z,100885.25
2022-08-24T21:35:26.967Z,100879.31
2022-08-24T21:37:55.406Z,100882.81
2022-08-24T21:40:23.963Z,100869.66
2022-08-24T21:42:51.614Z,100877.97
2022-08-24T21:45:19.234Z,100879.84
2022-08-24T21:47:47.132Z,100867.34
2022-08-24T21:50:14.958Z,100874.13
2022-08-24T21:52:43.180Z,100859.06
2022-08-24T21:55:14.802Z,100872.63
2022-08-24T21:57:42.698Z,100861.19
2022-08-24T22:00:13.573Z,100864.94
2022-08-24T22:02:42.274Z,100870.16
2022-08-24T22:05:09.881Z,100867.19
2022-08-24T22:07:37.369Z,100872.56
2022-08-24T22:10:05.507Z,100862.84
2022-08-24T22:12:33.058Z,100854.94
2022-08-24T22:15:00.808Z,100851.91
2022-08-24T22:17:28.196Z,100854.44
2022-08-24T22:19:55.673Z,100853.03
2022-08-24T22:22:23.161Z,100846.03
2022-08-24T22:24:50.731Z,100846.84
2022-08-24T22:27:18.610Z,100840.78
2022-08-24T22:29:50.654Z,100849.03
2022-08-24T22:32:19.854Z,100830.44
2022-08-24T22:34:47.452Z,100847.53
2022-08-24T22:37:15.018Z,100829.28
2022-08-24T22:39:42.369Z,100825.97
2022-08-24T22:42:10.101Z,100831.06
2022-08-24T22:44:37.689Z,100837.53
2022-08-24T22:47:13.150Z,100825.31
2022-08-24T22:49:45.707Z,100826.31
2022-08-24T22:52:13.697Z,100824.03
2022-08-24T22:54:41.239Z,100826.78
2022-08-24T22:57:09.293Z,100828.38
2022-08-24T22:59:37.570Z,100825.84
2022-08-24T23:02:12.770Z,100825.84
2022-08-24T23:04:41.744Z,100824.25
2022-08-24T23:07:09.458Z,100828.56
2022-08-24T23:09:44.339Z,100829.41
2022-08-24T23:12:15.379Z,100821.50
2022-08-24T23:14:43.335Z,100830.06
2022-08-24T23:17:10.907Z,100828.03
2022-08-24T23:19:56.697Z,100822.03
2022-08-24T23:22:24.156Z,100833.84
2022-08-24T23:24:53.280Z,100820.25
2022-08-24T23:27:20.736Z,100823.25
2022-08-24T23:29:49.513Z,100830.59
2022-08-24T23:32:17.635Z,100832.44
2022-08-24T23:34:46.235Z,100832.94
2022-08-24T23:37:15.611Z,100826.78
2022-08-24T23:39:43.054Z,100832.25
2022-08-24T23:42:10.461Z,100826.44
2022-08-24T23:44:39.175Z,100834.59
2022-08-24T23:47:06.721Z,100835.75
2022-08-24T23:49:34.585Z,100839.59
2022-08-24T23:52:02.104Z,100836.59
2022-08-24T23:54:29.921Z,100831.09
2022-08-24T23:56:57.681Z,100845.59
2022-08-24T23:59:26.801Z,100835.94
